Time;durP1;ratioP1;P1;durP2;ratioP2;P2;SDS_P1;SDS_P2;PMS_P1;PMS_P2;Temp;Humidity;BMP_temperature;BMP_pressure;BME280_temperature;BME280_humidity;BME280_pressure;Samples;Min_cycle;Max_cycle;Signal;HPM_P1;HPM_P2
2023/01/21 00:02:17;;;;;;;13.93;6.97;;;0.40;99.90;;;;;;6098912;23;20262;-96
2023/01/21 00:04:45;;;;;;;17.30;8.57;;;0.40;99.90;;;;;;6099123;23;20244;-96
2023/01/21 00:07:12;;;;;;;22.60;8.77;;;0.50;99.90;;;;;;6099539;23;20171;-95
2023/01/21 00:09:39;;;;;;;17.10;8.73;;;0.50;99.90;;;;;;6099597;23;20178;-96
2023/01/21 00:12:06;;;;;;;15.80;7.77;;;0.50;99.90;;;;;;6099497;23;20178;-96
2023/01/21 00:14:33;;;;;;;16.60;8.13;;;0.50;99.90;;;;;;6099913;23;20172;-96
2023/01/21 00:17:01;;;;;;;16.23;8.33;;;0.50;42.80;;;;;;6099244;23;20176;-96
2023/01/21 00:19:28;;;;;;;10.10;5.77;;;0.50;1.00;;;;;;6099404;23;20175;-96
2023/01/21 00:21:55;;;;;;;15.97;6.97;;;0.50;99.90;;;;;;6099428;23;20192;-96
2023/01/21 00:24:23;;;;;;;14.07;6.57;;;0.50;6.80;;;;;;6099208;23;20647;-95
2023/01/21 00:26:50;;;;;;;12.20;5.87;;;0.40;1.00;;;;;;6098696;23;20588;-96
2023/01/21 00:29:17;;;;;;;13.07;7.17;;;0.40;99.90;;;;;;6098529;23;20271;-96
2023/01/21 00:31:44;;;;;;;9.83;5.63;;;0.40;99.90;;;;;;6099522;23;20235;-94
2023/01/21 00:34:12;;;;;;;15.77;7.20;;;0.40;99.90;;;;;;6099510;23;20173;-95
2023/01/21 00:36:39;;;;;;;13.47;6.70;;;0.40;99.90;;;;;;6099381;23;20645;-95
2023/01/21 00:39:06;;;;;;;12.03;5.90;;;0.40;99.90;;;;;;6098678;23;20174;-96
2023/01/21 00:41:33;;;;;;;12.23;6.23;;;0.40;50.90;;;;;;6098791;23;20191;-95
2023/01/21 00:44:00;;;;;;;10.57;6.17;;;0.40;1.00;;;;;;6099592;23;20181;-95
2023/01/21 00:46:28;;;;;;;14.87;6.60;;;0.40;99.90;;;;;;6099398;23;20248;-96
2023/01/21 00:48:55;;;;;;;14.97;6.07;;;0.40;99.90;;;;;;6099421;23;20168;-96
2023/01/21 00:51:23;;;;;;;11.70;6.43;;;0.40;99.90;;;;;;6099307;23;20176;-95
2023/01/21 00:53:50;;;;;;;12.93;7.00;;;0.40;99.90;;;;;;6099104;23;20247;-96
2023/01/21 00:56:17;;;;;;;13.50;6.83;;;0.40;99.90;;;;;;6099121;23;20202;-96
2023/01/21 00:58:44;;;;;;;13.17;6.30;;;0.40;99.90;;;;;;6098401;23;20198;-95
2023/01/21 01:01:13;;;;;;;10.23;5.67;;;0.40;99.90;;;;;;6098717;23;20267;-96
2023/01/21 01:03:40;;;;;;;12.73;6.90;;;0.40;99.90;;;;;;6098913;23;20482;-96
2023/01/21 01:06:09;;;;;;;17.40;6.83;;;0.40;65.00;;;;;;6099378;23;20167;-96
2023/01/21 01:08:37;;;;;;;13.00;6.37;;;0.40;50.30;;;;;;6099301;23;20171;-96
2023/01/21 01:11:05;;;;;;;13.50;6.40;;;0.40;1.00;;;;;;6099502;23;20178;-95
2023/01/21 01:13:33;;;;;;;13.17;6.70;;;0.40;1.00;;;;;;6098443;23;20171;-95
2023/01/21 01:16:01;;;;;;;9.60;5.27;;;0.40;1.00;;;;;;6099069;23;20171;-96
2023/01/21 01:18:29;;;;;;;13.80;5.70;;;0.40;1.00;;;;;;6098928;23;20176;-95
2023/01/21 01:20:56;;;;;;;9.70;5.13;;;0.40;1.00;;;;;;6099005;23;20198;-96
2023/01/21 01:23:23;;;;;;;9.23;4.70;;;0.40;1.00;;;;;;6098638;23;20175;-95
2023/01/21 01:25:59;;;;;;;10.83;5.60;;;0.40;1.00;;;;;;6098645;23;20175;-95
2023/01/21 01:28:26;;;;;;;13.57;5.43;;;0.40;1.00;;;;;;6098759;23;20177;-96
2023/01/21 01:30:53;;;;;;;10.27;5.00;;;0.40;1.00;;;;;;6098317;23;20192;-96
2023/01/21 01:33:20;;;;;;;10.47;5.67;;;0.40;1.00;;;;;;6098442;23;20181;-95
2023/01/21 01:35:47;;;;;;;9.17;4.73;;;0.40;1.00;;;;;;6098321;23;20172;-95
2023/01/21 01:38:15;;;;;;;9.60;4.93;;;0.40;99.90;;;;;;6098430;23;20261;-95
2023/01/21 01:40:42;;;;;;;9.47;4.90;;;0.40;99.90;;;;;;6098285;23;20203;-95
2023/01/21 01:43:16;;;;;;;9.70;5.07;;;0.50;99.90;;;;;;6098754;23;20646;-96
2023/01/21 01:45:44;;;;;;;7.00;4.57;;;0.40;99.90;;;;;;6098174;23;20163;-95
2023/01/21 01:48:13;;;;;;;11.90;5.93;;;0.40;99.90;;;;;;6098458;23;20257;-95
2023/01/21 01:50:41;;;;;;;11.70;6.07;;;0.40;99.90;;;;;;6098825;23;20179;-95
2023/01/21 01:53:10;;;;;;;11.23;5.73;;;0.40;99.90;;;;;;6098711;23;20171;-96
2023/01/21 01:55:38;;;;;;;11.80;6.43;;;0.40;1.00;;;;;;6098932;23;20175;-96
2023/01/21 01:58:09;;;;;;;13.03;6.27;;;0.40;1.00;;;;;;6099094;23;20178;-95
2023/01/21 02:00:38;;;;;;;13.40;7.30;;;0.50;1.00;;;;;;6098732;23;20166;-96
2023/01/21 02:05:51;;;;;;;11.43;6.70;;;0.50;99.90;;;;;;6098666;23;20204;-96
2023/01/21 02:08:19;;;;;;;10.80;6.03;;;0.50;99.90;;;;;;6098685;23;20178;-96
2023/01/21 02:10:46;;;;;;;12.53;6.30;;;0.50;99.90;;;;;;6098398;23;20172;-96
2023/01/21 02:13:14;;;;;;;11.63;6.17;;;0.50;99.90;;;;;;6098871;23;20172;-96
2023/01/21 02:15:54;;;;;;;13.13;7.80;;;0.50;99.90;;;;;;6098678;23;20172;-96
2023/01/21 02:18:31;;;;;;;8.17;4.90;;;0.50;99.90;;;;;;6098275;23;20160;-95
2023/01/21 02:21:40;;;;;;;10.27;6.17;;;0.50;1.00;;;;;;6098555;23;20176;-96
2023/01/21 02:24:39;;;;;;;10.13;5.70;;;0.50;99.90;;;;;;6105613;23;20175;-96
2023/01/21 02:27:31;;;;;;;10.37;6.20;;;0.50;99.90;;;;;;6107179;23;20178;-96
2023/01/21 02:30:24;;;;;;;9.67;4.50;;;0.40;99.90;;;;;;6106417;23;20195;-96
2023/01/21 02:33:33;;;;;;;12.93;6.30;;;0.40;99.90;;;;;;6105341;23;20184;-95
2023/01/21 02:36:13;;;;;;;10.10;5.53;;;0.40;1.00;;;;;;6012821;23;20177;-96
2023/01/21 02:38:49;;;;;;;11.77;6.37;;;0.40;99.90;;;;;;6013748;23;20175;-96
2023/01/21 02:41:28;;;;;;;11.50;6.30;;;0.50;99.90;;;;;;6014027;23;20240;-96
2023/01/21 02:44:03;;;;;;;11.67;6.47;;;0.50;1.00;;;;;;6013912;23;20161;-96
2023/01/21 02:46:37;;;;;;;8.67;5.03;;;0.50;1.00;;;;;;6013439;23;20271;-96
2023/01/21 02:49:12;;;;;;;10.90;6.60;;;0.50;99.90;;;;;;6012988;23;20240;-96
2023/01/21 02:51:39;;;;;;;11.33;6.50;;;0.50;99.90;;;;;;6013470;23;20197;-95
2023/01/21 02:54:14;;;;;;;11.37;6.70;;;0.50;99.90;;;;;;6013770;23;20216;-96
2023/01/21 02:56:42;;;;;;;9.37;6.07;;;0.50;99.90;;;;;;6013816;23;20252;-96
2023/01/21 02:59:10;;;;;;;12.10;6.87;;;0.50;99.90;;;;;;6012854;23;20178;-95
2023/01/21 03:01:49;;;;;;;11.33;5.93;;;0.50;99.90;;;;;;6012467;23;20190;-96
2023/01/21 03:04:46;;;;;;;10.63;6.57;;;0.50;1.00;;;;;;6012983;23;20330;-96
2023/01/21 03:07:20;;;;;;;11.00;6.47;;;0.50;99.90;;;;;;6014026;23;20179;-96
2023/01/21 03:09:47;;;;;;;9.20;5.37;;;0.50;99.90;;;;;;6014501;23;20202;-96
2023/01/21 03:12:28;;;;;;;12.77;7.57;;;0.50;99.90;;;;;;6074087;23;20199;-96
2023/01/21 03:17:54;;;;;;;8.90;5.53;;;0.50;99.90;;;;;;6103361;23;20160;-96
2023/01/21 03:20:27;;;;;;;10.67;5.90;;;0.50;99.90;;;;;;6101533;23;20163;-96
2023/01/21 03:22:59;;;;;;;13.07;7.63;;;0.50;99.90;;;;;;6101471;23;20199;-96
2023/01/21 03:25:29;;;;;;;10.53;6.43;;;0.50;99.90;;;;;;6104297;23;20240;-96
2023/01/21 03:27:57;;;;;;;7.43;4.80;;;0.50;99.90;;;;;;6105229;23;20173;-96
2023/01/21 03:30:26;;;;;;;11.03;6.03;;;0.50;99.90;;;;;;6107901;23;20226;-96
2023/01/21 03:32:55;;;;;;;10.97;6.43;;;0.50;1.00;;;;;;6109680;23;20168;-96
2023/01/21 03:35:26;;;;;;;11.40;6.33;;;0.50;1.00;;;;;;6107174;23;20173;-96
2023/01/21 03:37:58;;;;;;;7.77;4.13;;;0.50;1.00;;;;;;6104798;23;20161;-96
2023/01/21 03:40:28;;;;;;;11.13;6.27;;;0.50;1.00;;;;;;6103596;23;20160;-96
2023/01/21 03:42:56;;;;;;;10.47;6.27;;;0.60;99.90;;;;;;6102290;23;20196;-96
2023/01/21 03:45:34;;;;;;;11.00;5.63;;;0.60;99.90;;;;;;6103017;23;20180;-96
2023/01/21 03:48:08;;;;;;;10.73;5.67;;;0.60;99.90;;;;;;6101347;23;20231;-96
2023/01/21 03:50:40;;;;;;;10.03;5.23;;;0.60;99.90;;;;;;6101059;23;20237;-96
2023/01/21 03:53:07;;;;;;;11.50;6.07;;;0.50;99.90;;;;;;6100547;23;20156;-96
2023/01/21 03:55:35;;;;;;;13.60;5.97;;;0.60;99.90;;;;;;6101072;23;20256;-96
2023/01/21 03:58:02;;;;;;;6.83;4.20;;;0.60;99.90;;;;;;6100982;23;20172;-96
2023/01/21 04:00:28;;;;;;;18.87;10.00;;;0.60;99.90;;;;;;6102309;23;20264;-96
2023/01/21 04:02:55;;;;;;;10.97;6.27;;;0.60;99.90;;;;;;6100791;23;20192;-96
2023/01/21 04:05:22;;;;;;;12.70;7.43;;;0.60;99.90;;;;;;6103474;23;20209;-96
2023/01/21 04:07:51;;;;;;;12.37;6.90;;;0.60;99.90;;;;;;6105581;23;20642;-96
2023/01/21 04:10:18;;;;;;;10.30;5.80;;;0.60;99.90;;;;;;6104682;23;20201;-96
2023/01/21 04:12:45;;;;;;;10.47;5.57;;;0.50;99.90;;;;;;6104713;23;20276;-96
2023/01/21 04:15:12;;;;;;;12.63;7.53;;;0.50;1.00;;;;;;6104724;23;20195;-96
2023/01/21 04:17:39;;;;;;;9.43;5.00;;;0.50;1.00;;;;;;6103926;23;20727;-96
2023/01/21 04:20:08;;;;;;;13.33;6.70;;;0.50;1.00;;;;;;6104063;23;20196;-96
2023/01/21 04:22:35;;;;;;;10.10;5.97;;;0.40;1.00;;;;;;6102826;23;20184;-96
2023/01/21 04:25:04;;;;;;;11.57;6.30;;;0.40;1.00;;;;;;6103375;23;20250;-96
2023/01/21 04:27:31;;;;;;;11.20;6.73;;;0.40;1.00;;;;;;6102707;23;20203;-96
2023/01/21 04:29:58;;;;;;;10.03;4.20;;;0.40;1.00;;;;;;6105063;23;20228;-96
2023/01/21 04:32:25;;;;;;;14.07;5.87;;;0.40;1.00;;;;;;6106595;23;20206;-96
2023/01/21 04:34:52;;;;;;;14.30;6.73;;;0.40;1.00;;;;;;6106608;23;20215;-96
2023/01/21 04:37:19;;;;;;;12.80;6.97;;;0.40;1.00;;;;;;6108155;23;20178;-96
2023/01/21 04:39:46;;;;;;;13.57;7.63;;;0.40;1.00;;;;;;6105631;23;20264;-96
2023/01/21 04:42:14;;;;;;;14.93;7.03;;;0.30;1.00;;;;;;6103848;23;20194;-96
2023/01/21 04:44:41;;;;;;;11.00;4.97;;;0.30;11.10;;;;;;6102344;23;20208;-96
2023/01/21 04:47:08;;;;;;;18.10;8.27;;;0.20;99.90;;;;;;6101814;23;20623;-96
2023/01/21 04:49:35;;;;;;;14.50;8.03;;;0.20;99.90;;;;;;6101918;23;20203;-96
2023/01/21 04:52:02;;;;;;;13.90;6.97;;;0.20;99.90;;;;;;6102175;23;20248;-96
2023/01/21 04:54:29;;;;;;;15.60;8.00;;;0.20;1.00;;;;;;6101531;23;20251;-96
2023/01/21 04:56:56;;;;;;;14.37;7.03;;;0.20;1.00;;;;;;6104675;23;20173;-96
2023/01/21 04:59:24;;;;;;;14.00;7.50;;;0.20;1.00;;;;;;6105873;23;20200;-96
2023/01/21 05:01:51;;;;;;;15.57;7.77;;;0.20;1.00;;;;;;6105777;23;20247;-96
2023/01/21 05:04:18;;;;;;;14.67;7.83;;;0.20;1.00;;;;;;6102768;23;20232;-96
2023/01/21 05:06:45;;;;;;;13.90;7.47;;;0.20;1.00;;;;;;6101878;23;20183;-96
2023/01/21 05:09:11;;;;;;;17.00;8.17;;;0.20;1.00;;;;;;6101539;23;20254;-96
2023/01/21 05:11:38;;;;;;;13.77;7.60;;;0.20;1.00;;;;;;6100486;23;20179;-96
2023/01/21 05:14:05;;;;;;;14.50;8.07;;;0.30;1.00;;;;;;6101588;23;20168;-95
2023/01/21 05:16:33;;;;;;;16.53;9.40;;;0.30;1.00;;;;;;6100503;23;20203;-96
2023/01/21 05:19:00;;;;;;;14.73;7.83;;;0.30;1.00;;;;;;6099305;23;20178;-96
2023/01/21 05:21:27;;;;;;;16.10;7.43;;;0.30;1.00;;;;;;6099503;23;20210;-96
2023/01/21 05:23:54;;;;;;;14.73;8.23;;;0.30;1.00;;;;;;6099361;23;20206;-96
2023/01/21 05:26:21;;;;;;;16.57;8.27;;;0.40;1.00;;;;;;6100217;23;20181;-96
2023/01/21 05:28:48;;;;;;;14.27;7.60;;;0.30;1.00;;;;;;6099885;23;20280;-96
2023/01/21 05:31:15;;;;;;;13.50;7.07;;;0.20;1.00;;;;;;6104525;23;20196;-95
2023/01/21 05:33:45;;;;;;;15.07;7.07;;;0.20;1.00;;;;;;6102835;23;20195;-96
2023/01/21 05:36:13;;;;;;;13.93;7.83;;;0.20;99.90;;;;;;6104091;23;20163;-96
2023/01/21 05:38:40;;;;;;;11.40;6.63;;;0.10;99.90;;;;;;6103191;23;20667;-96
2023/01/21 05:41:07;;;;;;;16.13;7.70;;;0.10;1.00;;;;;;6103661;23;20203;-96
2023/01/21 05:43:34;;;;;;;11.37;5.70;;;0.10;1.00;;;;;;6103412;23;20191;-95
2023/01/21 05:46:01;;;;;;;16.93;8.73;;;0.00;1.00;;;;;;6102813;23;20178;-96
2023/01/21 05:48:29;;;;;;;11.07;6.37;;;0.10;94.80;;;;;;6102314;23;20235;-96
2023/01/21 05:50:57;;;;;;;11.37;6.47;;;0.10;99.90;;;;;;6100661;23;20177;-95
2023/01/21 05:53:24;;;;;;;14.33;6.67;;;0.10;99.90;;;;;;6099319;23;20175;-96
2023/01/21 05:55:54;;;;;;;16.33;8.90;;;0.10;99.90;;;;;;6099070;23;20176;-96
2023/01/21 05:58:22;;;;;;;16.63;8.17;;;0.10;1.00;;;;;;6101307;23;20206;-96
2023/01/21 06:00:49;;;;;;;13.23;6.97;;;0.10;1.00;;;;;;6101168;23;20223;-95
2023/01/21 06:03:17;;;;;;;14.03;7.80;;;0.10;1.00;;;;;;6101203;23;20193;-96
2023/01/21 06:05:44;;;;;;;13.80;6.53;;;0.10;1.00;;;;;;6101080;23;20168;-96
2023/01/21 06:08:13;;;;;;;12.67;6.10;;;0.10;1.00;;;;;;6101187;23;20175;-96
2023/01/21 06:10:39;;;;;;;13.33;6.37;;;0.10;1.00;;;;;;6101458;23;20171;-96
2023/01/21 06:13:06;;;;;;;8.50;4.57;;;0.20;1.00;;;;;;6101631;23;20643;-96
2023/01/21 06:15:33;;;;;;;14.03;6.43;;;0.20;1.00;;;;;;6101624;23;20182;-95
2023/01/21 06:18:00;;;;;;;14.83;7.67;;;0.20;1.00;;;;;;6100809;23;20238;-96
2023/01/21 06:20:29;;;;;;;12.90;6.40;;;0.20;99.90;;;;;;6101567;23;20231;-95
2023/01/21 06:22:56;;;;;;;12.50;6.67;;;0.20;99.90;;;;;;6102322;23;20274;-96
2023/01/21 06:25:25;;;;;;;13.40;7.63;;;0.20;99.90;;;;;;6104971;23;20179;-96
2023/01/21 06:27:54;;;;;;;13.80;7.33;;;0.20;99.90;;;;;;6106793;23;20212;-96
2023/01/21 06:30:21;;;;;;;13.87;6.33;;;0.30;99.90;;;;;;6102025;23;20207;-96
2023/01/21 06:32:48;;;;;;;13.87;7.00;;;0.30;99.90;;;;;;6103590;23;20246;-96
2023/01/21 06:35:15;;;;;;;15.07;7.57;;;0.40;99.90;;;;;;6104019;23;20636;-96
2023/01/21 06:37:42;;;;;;;12.27;6.27;;;0.40;99.90;;;;;;6103746;23;20677;-96
2023/01/21 06:40:10;;;;;;;13.23;6.80;;;0.40;99.90;;;;;;6101110;23;20271;-96
2023/01/21 06:42:39;;;;;;;8.87;5.53;;;0.50;99.90;;;;;;6102119;23;20684;-96
2023/01/21 06:45:06;;;;;;;9.80;5.53;;;0.50;99.90;;;;;;6102876;23;20172;-96
2023/01/21 06:47:33;;;;;;;13.47;5.87;;;0.50;99.90;;;;;;6103420;23;20206;-96
2023/01/21 06:50:00;;;;;;;14.43;6.57;;;0.50;99.90;;;;;;6101015;23;20172;-96
2023/01/21 06:52:27;;;;;;;11.47;5.97;;;0.50;1.00;;;;;;6100724;23;20199;-96
2023/01/21 06:54:54;;;;;;;7.40;4.50;;;0.60;1.00;;;;;;6101263;23;20556;-95
2023/01/21 06:57:21;;;;;;;11.37;5.03;;;0.60;1.00;;;;;;6100317;23;20168;-96
2023/01/21 06:59:49;;;;;;;12.77;7.77;;;0.60;32.90;;;;;;6099749;23;20254;-95
2023/01/21 07:02:16;;;;;;;12.07;6.47;;;0.60;99.90;;;;;;6099921;23;20256;-96
2023/01/21 07:04:43;;;;;;;10.80;6.43;;;0.60;99.90;;;;;;6100759;23;20266;-96
2023/01/21 07:07:10;;;;;;;15.23;7.53;;;0.70;99.90;;;;;;6100968;23;20167;-95
2023/01/21 07:09:37;;;;;;;13.90;6.97;;;0.70;99.90;;;;;;6100159;23;20544;-94
2023/01/21 07:12:04;;;;;;;14.03;8.03;;;0.70;99.90;;;;;;6099292;23;20166;-94
2023/01/21 07:14:31;;;;;;;14.10;8.17;;;0.70;99.90;;;;;;6099042;23;20173;-94
2023/01/21 07:16:59;;;;;;;15.60;7.13;;;0.70;99.90;;;;;;6099449;23;20178;-94
2023/01/21 07:19:26;;;;;;;13.33;7.30;;;0.70;99.90;;;;;;6099109;23;20172;-94
2023/01/21 07:21:53;;;;;;;17.07;7.80;;;0.80;98.50;;;;;;6099130;23;20178;-93
2023/01/21 07:24:20;;;;;;;15.87;9.03;;;0.80;18.20;;;;;;6099381;23;20199;-95
2023/01/21 07:26:47;;;;;;;15.73;7.57;;;0.80;43.90;;;;;;6099431;23;20172;-93
2023/01/21 07:29:14;;;;;;;13.77;7.80;;;0.80;23.50;;;;;;6099138;23;20180;-92
2023/01/21 07:31:41;;;;;;;15.70;8.07;;;0.80;28.30;;;;;;6099101;23;20159;-93
2023/01/21 07:34:09;;;;;;;20.33;10.00;;;0.80;4.70;;;;;;6099253;23;20175;-93
2023/01/21 07:36:36;;;;;;;15.20;9.93;;;0.80;1.00;;;;;;6099158;23;20232;-94
2023/01/21 07:39:03;;;;;;;11.40;6.70;;;0.80;1.00;;;;;;6099440;23;20181;-93
2023/01/21 07:41:29;;;;;;;14.80;8.43;;;0.90;1.00;;;;;;6099263;23;20171;-92
2023/01/21 07:43:56;;;;;;;13.20;7.23;;;0.90;1.00;;;;;;6098737;23;20201;-93
2023/01/21 07:46:23;;;;;;;13.43;6.97;;;0.90;1.00;;;;;;6098594;23;20259;-95
2023/01/21 07:48:51;;;;;;;12.90;7.60;;;0.90;1.00;;;;;;6098756;23;20190;-93
2023/01/21 07:51:20;;;;;;;15.53;9.23;;;1.00;1.00;;;;;;6099187;23;20173;-93
2023/01/21 07:53:47;;;;;;;21.40;10.77;;;1.00;1.00;;;;;;6099379;23;20179;-93
2023/01/21 07:56:15;;;;;;;14.43;8.60;;;1.00;1.00;;;;;;6098814;23;20174;-92
2023/01/21 07:58:41;;;;;;;26.23;13.40;;;1.10;1.00;;;;;;6098943;23;20183;-93
2023/01/21 08:01:10;;;;;;;14.87;8.30;;;1.10;1.00;;;;;;6099033;23;20175;-93
2023/01/21 08:03:37;;;;;;;12.93;7.77;;;1.10;1.00;;;;;;6099367;23;20191;-93
2023/01/21 08:06:05;;;;;;;14.23;7.93;;;1.20;1.00;;;;;;6098869;23;20178;-94
2023/01/21 08:08:33;;;;;;;13.03;7.17;;;1.30;1.00;;;;;;6099366;23;20184;-94
2023/01/21 08:11:00;;;;;;;12.60;6.97;;;1.20;99.90;;;;;;6098846;23;20173;-94
2023/01/21 08:13:27;;;;;;;16.23;7.73;;;1.30;99.90;;;;;;6098674;23;20177;-94
2023/01/21 08:15:55;;;;;;;10.07;6.13;;;1.30;99.90;;;;;;6098540;23;20180;-93
2023/01/21 08:18:23;;;;;;;12.07;7.70;;;1.40;99.90;;;;;;6098739;23;20176;-94
2023/01/21 08:20:54;;;;;;;12.97;6.73;;;1.40;99.90;;;;;;6099185;23;20179;-94
2023/01/21 08:23:22;;;;;;;13.73;7.23;;;1.50;99.90;;;;;;6098655;23;20204;-94
2023/01/21 08:25:50;;;;;;;14.27;7.60;;;1.60;99.90;;;;;;6099151;23;20236;-93
2023/01/21 08:28:17;;;;;;;13.10;6.30;;;1.60;99.90;;;;;;6098695;23;20172;-94
2023/01/21 08:30:44;;;;;;;14.17;6.13;;;1.70;1.00;;;;;;6098006;23;20196;-94
2023/01/21 08:33:11;;;;;;;14.20;5.43;;;1.70;1.00;;;;;;6098652;23;20172;-92
2023/01/21 08:35:38;;;;;;;11.37;5.47;;;1.80;1.00;;;;;;6098729;23;20177;-94
2023/01/21 08:38:04;;;;;;;10.93;6.90;;;1.80;1.00;;;;;;6098572;23;20177;-92
2023/01/21 08:40:31;;;;;;;10.90;5.20;;;2.00;1.00;;;;;;6098441;23;20183;-95
2023/01/21 08:43:00;;;;;;;9.77;4.60;;;2.00;99.90;;;;;;6098959;23;20538;-93
2023/01/21 08:45:27;;;;;;;7.57;4.47;;;2.10;99.90;;;;;;6098725;23;20256;-95
2023/01/21 08:47:54;;;;;;;9.73;5.03;;;2.10;41.60;;;;;;6098247;23;20511;-94
2023/01/21 08:50:22;;;;;;;8.93;5.70;;;2.20;1.00;;;;;;6098596;23;20182;-96
2023/01/21 08:52:52;;;;;;;9.83;6.13;;;2.20;1.00;;;;;;6098612;23;20257;-93
2023/01/21 08:55:19;;;;;;;10.20;4.97;;;2.20;1.00;;;;;;6098739;23;20633;-94
2023/01/21 08:57:47;;;;;;;7.93;4.33;;;2.30;99.90;;;;;;6098997;23;20174;-94
2023/01/21 09:00:16;;;;;;;11.77;4.73;;;2.30;99.90;;;;;;6098790;23;20232;-96
2023/01/21 09:02:43;;;;;;;9.97;5.40;;;2.40;99.90;;;;;;6098580;23;20181;-96
2023/01/21 09:05:10;;;;;;;7.63;4.47;;;2.40;99.90;;;;;;6099829;23;20172;-96
2023/01/21 09:07:37;;;;;;;11.23;5.70;;;2.40;75.70;;;;;;6098743;23;20172;-96
2023/01/21 09:10:04;;;;;;;9.07;6.03;;;2.50;1.00;;;;;;6099350;23;20189;-96
2023/01/21 09:12:31;;;;;;;6.83;4.60;;;2.50;6.90;;;;;;6098765;23;20265;-96
2023/01/21 09:14:58;;;;;;;7.33;4.17;;;2.50;1.00;;;;;;6099144;23;20264;-96
2023/01/21 09:17:27;;;;;;;6.03;4.40;;;2.50;1.00;;;;;;6098890;23;20175;-96
2023/01/21 09:19:53;;;;;;;10.73;5.67;;;2.50;1.00;;;;;;6099178;23;20177;-96
2023/01/21 09:22:20;;;;;;;11.33;6.30;;;2.60;1.00;;;;;;6099426;23;20175;-96
2023/01/21 09:24:47;;;;;;;11.53;5.20;;;2.60;99.90;;;;;;6099311;23;20250;-96
2023/01/21 09:27:14;;;;;;;10.80;5.00;;;2.70;99.90;;;;;;6100331;23;20256;-96
2023/01/21 09:29:41;;;;;;;6.80;4.33;;;2.70;99.90;;;;;;6100348;23;20597;-95
2023/01/21 09:32:08;;;;;;;6.80;4.07;;;2.70;99.90;;;;;;6102529;23;20175;-96
2023/01/21 09:34:37;;;;;;;5.97;3.53;;;2.80;20.60;;;;;;6106382;23;20204;-96
2023/01/21 09:37:04;;;;;;;8.13;4.33;;;2.80;1.00;;;;;;6107947;23;20230;-96
2023/01/21 09:39:31;;;;;;;7.33;4.00;;;2.80;1.00;;;;;;6112046;23;20178;-96
2023/01/21 09:41:58;;;;;;;6.73;3.77;;;2.90;1.00;;;;;;6113860;23;20190;-96
2023/01/21 09:44:31;;;;;;;7.53;3.73;;;2.90;1.00;;;;;;6115222;23;20191;-96
2023/01/21 09:47:03;;;;;;;5.30;3.57;;;2.90;1.00;;;;;;6115866;23;20171;-96
2023/01/21 09:49:34;;;;;;;8.80;3.90;;;3.00;99.90;;;;;;6120994;23;20160;-96
2023/01/21 09:52:13;;;;;;;4.53;3.00;;;3.00;99.90;;;;;;6120339;23;20175;-96
2023/01/21 09:54:41;;;;;;;5.23;3.10;;;3.00;99.90;;;;;;6121051;23;20156;-96
2023/01/21 09:57:38;;;;;;;6.93;3.57;;;3.10;1.00;;;;;;6123048;23;20155;-96
2023/01/21 10:00:29;;;;;;;6.60;2.77;;;3.10;1.00;;;;;;6123455;23;20163;-96
2023/01/21 10:03:01;;;;;;;6.30;3.43;;;3.10;1.00;;;;;;6123879;23;20159;-96
2023/01/21 10:08:37;;;;;;;4.83;3.07;;;3.00;1.00;;;;;;6152521;23;20202;-96
2023/01/21 10:11:20;;;;;;;5.00;3.40;;;3.00;1.00;;;;;;6182794;23;20153;-96
2023/01/21 10:16:40;;;;;;;5.37;2.90;;;3.00;1.00;;;;;;6168036;23;20186;-96
2023/01/21 10:19:12;;;;;;;3.40;2.40;;;3.10;1.00;;;;;;6182752;23;20155;-96
2023/01/21 10:21:45;;;;;;;4.97;3.00;;;3.10;1.00;;;;;;6183494;23;20146;-96
2023/01/21 10:24:16;;;;;;;3.03;2.50;;;3.00;1.00;;;;;;6182832;23;20186;-96
2023/01/21 10:26:45;;;;;;;5.17;3.27;;;3.10;1.00;;;;;;6182928;23;20158;-96
2023/01/21 10:29:17;;;;;;;3.43;2.53;;;3.10;1.00;;;;;;6181324;23;20173;-96
2023/01/21 10:31:49;;;;;;;4.17;2.30;;;3.10;99.90;;;;;;6181819;23;20170;-95
2023/01/21 10:34:19;;;;;;;5.90;2.40;;;3.10;99.90;;;;;;6179018;23;20181;-96
2023/01/21 10:37:06;;;;;;;4.07;2.57;;;3.10;99.90;;;;;;6177342;23;20174;-96
2023/01/21 10:39:47;;;;;;;4.97;2.77;;;3.10;99.90;;;;;;6176680;23;20190;-96
2023/01/21 10:42:33;;;;;;;4.70;2.90;;;3.10;99.90;;;;;;6176750;23;20151;-96
2023/01/21 10:45:07;;;;;;;4.53;2.60;;;3.20;99.90;;;;;;6176753;23;20174;-96
2023/01/21 10:47:43;;;;;;;5.40;2.20;;;3.20;99.90;;;;;;6176535;23;20178;-96
2023/01/21 10:50:25;;;;;;;2.57;1.50;;;3.20;1.00;;;;;;6176819;23;20166;-95
2023/01/21 10:52:56;;;;;;;4.43;2.47;;;3.20;1.00;;;;;;6172537;23;20182;-96
2023/01/21 10:55:32;;;;;;;4.73;1.80;;;3.20;1.00;;;;;;6175792;23;20186;-96
2023/01/21 10:58:02;;;;;;;3.13;2.17;;;3.20;1.00;;;;;;6175301;23;20185;-96
2023/01/21 11:00:34;;;;;;;3.03;1.90;;;3.20;1.00;;;;;;6173677;23;20158;-96
2023/01/21 11:03:08;;;;;;;4.97;2.37;;;3.20;1.00;;;;;;6174917;23;20180;-95
2023/01/21 11:05:35;;;;;;;5.13;1.77;;;3.20;1.00;;;;;;6172881;23;20170;-95
2023/01/21 11:08:03;;;;;;;4.30;2.27;;;3.30;1.00;;;;;;6172516;23;20185;-95
2023/01/21 11:10:31;;;;;;;2.73;2.03;;;3.20;1.00;;;;;;6172652;23;20180;-95
2023/01/21 11:12:59;;;;;;;3.13;1.90;;;3.20;1.00;;;;;;6174823;23;20172;-95
2023/01/21 11:15:32;;;;;;;2.70;1.87;;;3.20;1.00;;;;;;6175316;23;20194;-95
2023/01/21 11:17:59;;;;;;;3.60;2.10;;;3.20;1.00;;;;;;6179522;23;20158;-95
2023/01/21 11:20:34;;;;;;;3.80;2.40;;;3.20;1.00;;;;;;6175453;23;20230;-95
2023/01/21 11:23:04;;;;;;;2.67;1.60;;;3.10;1.00;;;;;;6173599;23;20169;-96
2023/01/21 11:25:42;;;;;;;3.87;2.80;;;3.20;1.00;;;;;;6173678;23;20221;-96
2023/01/21 11:28:23;;;;;;;3.67;2.13;;;3.20;1.00;;;;;;6175028;23;20165;-96
2023/01/21 11:30:50;;;;;;;4.73;2.07;;;3.30;1.00;;;;;;6172382;23;20163;-95
2023/01/21 11:33:26;;;;;;;3.67;1.90;;;3.20;1.00;;;;;;6173172;23;20232;-94
2023/01/21 11:35:55;;;;;;;2.83;1.60;;;3.20;1.00;;;;;;6172568;23;20174;-96
2023/01/21 11:38:32;;;;;;;5.13;1.90;;;3.20;1.00;;;;;;6171374;23;20177;-95
2023/01/21 11:41:06;;;;;;;3.83;1.80;;;3.20;1.00;;;;;;6169374;23;20161;-95
2023/01/21 11:43:41;;;;;;;2.93;1.50;;;3.20;1.00;;;;;;6168049;23;20157;-95
2023/01/21 11:46:35;;;;;;;3.00;2.07;;;3.10;1.00;;;;;;6169898;23;20229;-95
2023/01/21 11:49:28;;;;;;;3.90;2.20;;;3.10;1.00;;;;;;6167685;23;20170;-95
2023/01/21 11:52:14;;;;;;;3.27;1.70;;;3.10;1.00;;;;;;6168780;23;20201;-95
2023/01/21 11:54:41;;;;;;;5.33;2.03;;;3.10;1.00;;;;;;6168591;23;20249;-96
2023/01/21 11:57:21;;;;;;;4.57;1.80;;;3.10;1.00;;;;;;6170654;23;20181;-95
2023/01/21 11:59:50;;;;;;;3.70;1.90;;;3.10;1.00;;;;;;6169066;23;20178;-95
2023/01/21 12:02:19;;;;;;;5.13;1.80;;;3.00;1.00;;;;;;6168088;23;20166;-95
2023/01/21 12:04:50;;;;;;;4.13;2.03;;;3.00;1.00;;;;;;6166417;23;20202;-96
2023/01/21 12:07:20;;;;;;;4.77;1.87;;;3.00;1.00;;;;;;6169750;23;20512;-95
2023/01/21 12:09:53;;;;;;;5.43;2.10;;;2.90;1.00;;;;;;6169304;23;20212;-95
2023/01/21 12:12:37;;;;;;;3.53;1.63;;;2.80;99.90;;;;;;6169479;23;20544;-95
2023/01/21 12:15:18;;;;;;;3.00;1.70;;;2.70;99.90;;;;;;6169652;23;20283;-96
2023/01/21 12:17:53;;;;;;;3.33;2.00;;;2.70;1.00;;;;;;6168856;23;20180;-95
2023/01/21 12:20:30;;;;;;;3.20;1.63;;;2.60;95.40;;;;;;6168485;23;20158;-95
2023/01/21 12:23:19;;;;;;;3.37;1.67;;;2.50;99.90;;;;;;6170378;23;20160;-95
2023/01/21 12:25:54;;;;;;;11.20;1.43;;;2.50;1.00;;;;;;6169203;23;20212;-95
2023/01/21 12:28:38;;;;;;;2.87;1.80;;;2.40;1.00;;;;;;6171549;23;20161;-95
2023/01/21 12:31:20;;;;;;;3.17;1.60;;;2.50;50.00;;;;;;6169934;23;20213;-96
2023/01/21 12:33:53;;;;;;;6.70;2.13;;;2.40;99.90;;;;;;6169157;23;20241;-95
2023/01/21 12:36:26;;;;;;;9.63;1.90;;;2.40;99.90;;;;;;6170032;23;20158;-95
2023/01/21 12:39:05;;;;;;;3.70;1.80;;;2.40;1.00;;;;;;6168664;23;20243;-95
2023/01/21 12:41:34;;;;;;;3.87;2.37;;;2.30;99.90;;;;;;6169654;23;20567;-96
2023/01/21 12:44:20;;;;;;;6.70;2.83;;;2.30;1.00;;;;;;6172271;23;20189;-95
2023/01/21 12:46:50;;;;;;;4.43;2.10;;;2.20;1.00;;;;;;6170754;23;20160;-95
2023/01/21 12:49:24;;;;;;;2.07;1.50;;;2.20;99.90;;;;;;6167925;23;20166;-95
2023/01/21 12:51:55;;;;;;;3.23;1.80;;;2.20;1.00;;;;;;6161705;23;20240;-96
2023/01/21 12:54:29;;;;;;;4.97;1.77;;;2.20;98.10;;;;;;6160272;23;20158;-95
2023/01/21 12:57:04;;;;;;;4.03;2.13;;;2.10;1.00;;;;;;6159139;23;20188;-95
2023/01/21 12:59:39;;;;;;;6.03;3.10;;;2.10;1.00;;;;;;6162031;23;20201;-95
2023/01/21 13:02:20;;;;;;;7.87;4.03;;;2.10;99.90;;;;;;6159758;23;20247;-95
2023/01/21 13:04:56;;;;;;;13.63;7.23;;;2.10;99.90;;;;;;6160195;23;20187;-94
2023/01/21 13:07:34;;;;;;;5.57;3.00;;;2.10;1.00;;;;;;6167067;23;20170;-94
2023/01/21 13:10:12;;;;;;;6.43;3.63;;;2.10;1.00;;;;;;6161275;23;20213;-95
2023/01/21 13:12:41;;;;;;;5.50;3.97;;;2.10;1.00;;;;;;6162877;23;20670;-96
2023/01/21 13:15:16;;;;;;;5.80;3.40;;;2.10;1.00;;;;;;6169088;23;20194;-91
2023/01/21 13:17:48;;;;;;;4.40;2.87;;;2.10;1.00;;;;;;6183573;23;20184;-95
2023/01/21 13:20:17;;;;;;;4.63;2.23;;;2.10;1.00;;;;;;6207281;23;20164;-92
2023/01/21 13:22:54;;;;;;;3.17;2.37;;;2.10;1.00;;;;;;6187094;23;20169;-92
2023/01/21 13:25:29;;;;;;;4.47;2.20;;;2.10;1.00;;;;;;6187062;23;20184;-92